EGMCLEAL

Guest
Details From EGMC - Southend
To LEAL - Alicante
Flight Number -
Tags Generated
Created
Modified
Stats Distance 800 nm / 1,481 km
Max Altitude 0 ft / 0 m
Waypoints 5
Social Downloads 4
Likes 0
Share VATSIM

Download

Looking for another format? Having issues loading an existing format? Contact us
Advertisement - Login to hide

Notes

Generated

Route

EGMC GINON SOVAR R2305 LEAL

ID Type Via Altitude Latitude Longitude Leg Dist Tot Dist Heading (true) Name
O EGMC APT - 0 ft / 0 m 51.56725˚ 0.68627˚ - 0 nm - -
GINON FIX - 0 ft / 0 m 47.16667˚ 0.18000˚ 265 nm 265 nm 184° / 184° -
SOVAR FIX - 0 ft / 0 m 42.78806˚ -0.24444˚ 263 nm 528 nm 184° / 184° -
R2305 FIX - 0 ft / 0 m 38.28452˚ -0.57500˚ 270 nm 799 nm 183° / 183° -
O LEAL APT - 0 ft / 0 m 38.28452˚ -0.57500˚ 0 nm 799 nm 270° / 270° -

Altitude Profile

Advertisement - Login to hide

Weather


0- 5 10 15 20 25 30 35+ Temperature / ° C

Clouds and Precipitation
Forecast for 2018-05-27 00:00 UTC. Updated 5 hours ago

Ground ~20,000 ft ~40,000 ft Winds

EGMC

Details ICAO EGMC (SEN)
Name Southend
Region United Kingdom
Timezone Europe/London (UTC+1.0)
Stats Elevation 49 ft / 15 m (AMSL)
Location 51.571443° 0.695583°
Runways 1
Magnetic Variation 0.106° W

METAR

EGMC 270350Z 01005KT 8000 NSC 16/13 Q1015

Decode

TAF

Not found

Departure Runways

ID Width Length Bearing (true) Bearing (mag) Surface Threshold Offset Overrun Length
06 121 ft / 37 m 5,230 ft / 1,594 m 54.10° 54.21° Asphalt 558 ft / 170 m 0 ft / 0 m
24 121 ft / 37 m 5,230 ft / 1,594 m 234.11° 234.22° Asphalt 466 ft / 142 m 0 ft / 0 m

LEAL

Details ICAO LEAL (ALC)
Name Alicante
Region Spain
Timezone Europe/Madrid (UTC+2.0)
Stats Elevation 141 ft / 43 m (AMSL)
Location 38.282169° -0.558157°
Runways 1
Magnetic Variation 0.233° E

METAR

LEAL 270400Z 24004KT CAVOK 17/15 Q1012 NOSIG

Decode

TAF

TAF TAF LEAL 262300Z 2700/2724 VRB03KT 9999 FEW020 TX25/2712Z TN16/2706Z PROB40 TEMPO 2700/2706 4000 BR BKN010 TEMPO 2701/2703 34008KT TEMPO 2703/2706 21010KT BECMG 2706/2708 18008KT PROB40 TEMPO 2712/2717 17014G24KT BECMG 2717/2719 VRB04KT

Decode

Destination Runways

ID Width Length Bearing (true) Bearing (mag) Surface Threshold Offset Overrun Length
10 148 ft / 45 m 9,799 ft / 2,987 m 100.07° 99.84° Asphalt 0 ft / 0 m 164 ft / 50 m
28 148 ft / 45 m 9,799 ft / 2,987 m 280.09° 279.86° Asphalt 0 ft / 0 m 197 ft / 60 m

Approach Navaids

Runway Type Ident Frequency Range Bearing (true) Bearing (mag) Slope Elevation
10 Localiser IAT 110.30 MHz 18 nm / 33 km 100.09° 99.86° - 29 ft / 9 m (AMSL)
10 Glidescope IAT 110.30 MHz 10 nm / 19 km 100.09° 99.86° 3.00° 129 ft / 39 m (AMSL)
10 DME IAT 110.30 MHz 18 nm / 33 km - - - 129 ft / 39 m (AMSL)

Popular Alternatives